createdAt,value
2022-10-01T00:01:11.361Z,11.44
2022-10-01T00:03:40.030Z,11.54
2022-10-01T00:06:10.443Z,11.57
2022-10-01T00:08:39.483Z,11.62
2022-10-01T00:11:12.352Z,11.45
2022-10-01T00:13:42.941Z,11.21
2022-10-01T00:16:12.957Z,11.39
2022-10-01T00:18:42.442Z,11.51
2022-10-01T00:21:12.190Z,11.24
2022-10-01T00:23:39.964Z,11.32
2022-10-01T00:26:13.568Z,11.45
2022-10-01T00:28:43.079Z,11.20
2022-10-01T00:31:11.393Z,11.21
2022-10-01T00:33:40.094Z,11.25
2022-10-01T00:36:08.748Z,11.32
2022-10-01T00:38:37.817Z,11.08
2022-10-01T00:41:06.105Z,11.09
2022-10-01T00:43:35.545Z,10.95
2022-10-01T00:46:10.756Z,10.71
2022-10-01T00:48:47.692Z,10.49
2022-10-01T00:51:15.473Z,10.51
2022-10-01T00:53:44.551Z,10.56
2022-10-01T00:56:12.132Z,10.60
2022-10-01T00:58:39.628Z,10.56
2022-10-01T01:01:08.757Z,10.30
2022-10-01T01:03:36.350Z,10.59
2022-10-01T01:06:04.773Z,10.34
2022-10-01T01:08:32.424Z,10.60
2022-10-01T01:11:08.342Z,10.68
2022-10-01T01:13:42.294Z,10.89
2022-10-01T01:16:16.916Z,10.70
2022-10-01T01:18:52.119Z,10.72
2022-10-01T01:21:24.866Z,10.65
2022-10-01T01:24:22.916Z,10.57
2022-10-01T01:27:03.409Z,10.67
2022-10-01T01:29:39.695Z,10.63
2022-10-01T01:32:15.014Z,10.72
2022-10-01T01:34:46.392Z,10.66
2022-10-01T01:37:18.348Z,10.65
2022-10-01T01:39:51.767Z,10.64
2022-10-01T01:42:24.667Z,10.70
2022-10-01T01:44:58.099Z,10.62
2022-10-01T01:47:28.601Z,10.55
2022-10-01T01:49:57.412Z,10.51
2022-10-01T01:52:25.224Z,10.55
2022-10-01T01:54:53.021Z,10.63
2022-10-01T01:57:21.668Z,10.50
2022-10-01T01:59:49.424Z,10.33
2022-10-01T02:02:23.395Z,10.46
2022-10-01T02:04:55.520Z,10.34
2022-10-01T02:07:38.628Z,10.33
2022-10-01T02:10:18.252Z,10.19
2022-10-01T02:12:56.457Z,10.12
2022-10-01T02:15:28.771Z,10.09
2022-10-01T02:18:03.226Z,9.96
2022-10-01T02:20:36.767Z,9.78
2022-10-01T02:23:10.010Z,9.90
2022-10-01T02:25:41.496Z,9.90
2022-10-01T02:28:12.812Z,9.97
2022-10-01T02:30:44.191Z,9.96
2022-10-01T02:33:16.312Z,9.80
2022-10-01T02:35:45.908Z,9.90
2022-10-01T02:38:15.169Z,10.00
2022-10-01T02:40:45.757Z,9.94
2022-10-01T02:43:18.519Z,9.81
2022-10-01T02:45:52.347Z,9.81
2022-10-01T02:48:21.280Z,9.75
2022-10-01T02:50:52.263Z,9.69
2022-10-01T02:53:24.326Z,9.71
2022-10-01T02:55:53.608Z,9.65
2022-10-01T02:58:21.050Z,9.63
2022-10-01T03:00:48.607Z,9.63
2022-10-01T03:03:16.224Z,9.55
2022-10-01T03:05:45.066Z,9.25
2022-10-01T03:08:12.640Z,9.14
2022-10-01T03:10:42.454Z,9.28
2022-10-01T03:13:13.552Z,9.21
2022-10-01T03:15:41.167Z,9.33
2022-10-01T03:18:08.736Z,9.11
2022-10-01T03:20:36.249Z,9.10
2022-10-01T03:23:05.119Z,9.21
2022-10-01T03:25:32.629Z,9.40
2022-10-01T03:28:00.871Z,9.10
2022-10-01T03:30:28.489Z,8.95
2022-10-01T03:32:55.998Z,9.01
2022-10-01T03:35:24.919Z,8.91
2022-10-01T03:37:52.954Z,9.23
2022-10-01T03:40:21.802Z,9.40
2022-10-01T03:42:50.075Z,9.71
2022-10-01T03:45:17.761Z,9.78
2022-10-01T03:47:45.260Z,9.73
2022-10-01T03:50:12.761Z,9.89
2022-10-01T03:52:41.525Z,9.54
2022-10-01T03:55:09.770Z,9.77
2022-10-01T03:57:38.720Z,9.78
2022-10-01T04:00:06.801Z,9.76
2022-10-01T04:02:34.415Z,9.45
2022-10-01T04:05:02.001Z,9.34
2022-10-01T04:07:29.851Z,9.25
2022-10-01T04:09:57.337Z,9.08
2022-10-01T04:12:24.835Z,9.25
2022-10-01T04:14:53.643Z,9.00
2022-10-01T04:17:21.127Z,9.40
2022-10-01T04:19:48.620Z,9.13
2022-10-01T04:22:16.114Z,9.07
2022-10-01T04:24:43.618Z,9.22
2022-10-01T04:27:11.136Z,9.30
2022-10-01T04:29:40.357Z,9.06
2022-10-01T04:32:09.444Z,9.23
2022-10-01T04:34:55.378Z,9.01
2022-10-01T04:37:24.183Z,8.92
2022-10-01T04:39:51.707Z,8.93
2022-10-01T04:42:19.235Z,8.96
2022-10-01T04:44:46.733Z,8.79
2022-10-01T04:47:15.692Z,8.56
2022-10-01T04:49:43.197Z,8.57
2022-10-01T04:52:10.693Z,8.43
2022-10-01T04:54:38.196Z,8.49
2022-10-01T04:57:05.694Z,8.36
2022-10-01T04:59:33.229Z,8.60
2022-10-01T05:02:00.783Z,8.63
2022-10-01T05:04:29.683Z,8.55
2022-10-01T05:06:57.144Z,8.67
2022-10-01T05:09:24.753Z,8.88
2022-10-01T05:11:52.531Z,8.92
2022-10-01T05:14:21.160Z,8.96
2022-10-01T05:16:48.725Z,9.02
2022-10-01T05:19:16.256Z,9.36
2022-10-01T05:21:45.820Z,9.46
2022-10-01T05:24:13.348Z,9.15
2022-10-01T05:26:40.843Z,9.26
2022-10-01T05:29:08.337Z,9.43
2022-10-01T05:31:36.172Z,9.55
2022-10-01T05:34:03.902Z,9.55
2022-10-01T05:36:31.397Z,9.56
2022-10-01T05:39:00.253Z,10.09
2022-10-01T05:41:28.136Z,10.27
2022-10-01T05:43:55.658Z,10.37
2022-10-01T05:46:23.188Z,10.11
2022-10-01T05:48:51.266Z,10.17
2022-10-01T05:51:19.091Z,10.46
2022-10-01T05:53:50.494Z,10.51
2022-10-01T05:56:19.548Z,10.69
2022-10-01T05:58:47.064Z,10.60
2022-10-01T06:01:14.788Z,10.90
2022-10-01T06:03:42.871Z,10.95
2022-10-01T06:06:10.435Z,10.50
2022-10-01T06:08:38.592Z,10.47
2022-10-01T06:11:06.375Z,10.37
2022-10-01T06:13:36.701Z,10.39
2022-10-01T06:16:04.483Z,10.39
2022-10-01T06:18:32.100Z,10.67
2022-10-01T06:21:00.575Z,10.75
2022-10-01T06:23:28.084Z,10.86
2022-10-01T06:25:55.607Z,11.14
2022-10-01T06:28:23.239Z,10.99
2022-10-01T06:30:52.131Z,10.98
2022-10-01T06:33:20.195Z,11.43
2022-10-01T06:35:49.083Z,11.68
2022-10-01T06:38:18.089Z,11.62
2022-10-01T06:40:45.724Z,11.65
2022-10-01T06:43:13.250Z,11.56
2022-10-01T06:45:42.860Z,11.46
2022-10-01T06:48:15.083Z,11.47
2022-10-01T06:50:43.491Z,11.53
2022-10-01T06:53:11.695Z,11.25
2022-10-01T06:55:39.488Z,11.29
2022-10-01T06:58:08.981Z,11.10
2022-10-01T07:00:39.011Z,11.10
2022-10-01T07:03:10.724Z,11.23
2022-10-01T07:05:40.413Z,11.26
2022-10-01T07:08:08.715Z,11.08
2022-10-01T07:10:37.419Z,11.29
2022-10-01T07:13:09.572Z,11.04
2022-10-01T07:15:37.825Z,11.36
2022-10-01T07:18:06.054Z,11.02
2022-10-01T07:20:35.949Z,11.09
2022-10-01T07:23:04.828Z,11.01
2022-10-01T07:25:32.542Z,10.85
2022-10-01T07:28:02.641Z,10.87
2022-10-01T07:30:30.152Z,11.08
2022-10-01T07:32:57.952Z,11.35
2022-10-01T07:35:26.147Z,11.47
2022-10-01T07:37:55.182Z,11.48
2022-10-01T07:40:24.078Z,11.85
2022-10-01T07:42:55.728Z,11.93
2022-10-01T07:45:24.294Z,12.25
2022-10-01T07:47:55.795Z,12.50
2022-10-01T07:50:24.260Z,12.94
2022-10-01T07:52:53.611Z,13.27
2022-10-01T07:55:21.674Z,13.35
2022-10-01T07:57:54.089Z,13.27
2022-10-01T08:00:22.664Z,13.40
2022-10-01T08:02:51.610Z,13.36
2022-10-01T08:05:20.410Z,13.66
2022-10-01T08:07:48.659Z,13.79
2022-10-01T08:10:18.440Z,14.03
2022-10-01T08:12:46.563Z,14.12
2022-10-01T08:15:17.357Z,13.95
2022-10-01T08:17:45.802Z,13.89
2022-10-01T08:20:14.824Z,13.46
2022-10-01T08:22:42.637Z,13.55
2022-10-01T08:25:10.958Z,13.93
2022-10-01T08:27:38.516Z,14.18
2022-10-01T08:30:07.021Z,13.91
2022-10-01T08:32:35.908Z,13.62
2022-10-01T08:35:04.983Z,13.31
2022-10-01T08:37:32.520Z,13.12
2022-10-01T08:40:00.067Z,13.36
2022-10-01T08:42:44.818Z,13.32
2022-10-01T08:45:15.859Z,13.57
2022-10-01T08:47:49.364Z,13.33
2022-10-01T08:50:37.244Z,13.50
2022-10-01T08:53:08.143Z,13.49
2022-10-01T08:55:37.599Z,13.84
2022-10-01T08:58:07.518Z,13.66
2022-10-01T09:00:39.746Z,13.41
2022-10-01T09:03:14.329Z,13.23
2022-10-01T09:05:53.223Z,12.81
2022-10-01T09:08:43.733Z,12.51
2022-10-01T09:11:21.918Z,12.53
2022-10-01T09:14:00.735Z,12.53
2022-10-01T09:16:36.441Z,12.42
2022-10-01T09:19:18.997Z,12.63
2022-10-01T09:21:57.087Z,12.70
2022-10-01T09:24:40.549Z,12.98
2022-10-01T09:27:14.580Z,12.47
2022-10-01T09:29:46.927Z,12.68
2022-10-01T09:32:17.764Z,12.77
2022-10-01T09:34:46.617Z,12.74
2022-10-01T09:37:24.469Z,12.50
2022-10-01T09:40:01.546Z,12.85
2022-10-01T09:42:30.870Z,12.85
2022-10-01T09:44:58.957Z,12.56
2022-10-01T09:47:26.708Z,12.50
2022-10-01T09:49:56.940Z,12.85
2022-10-01T09:52:29.023Z,13.10
2022-10-01T09:55:00.824Z,13.74
2022-10-01T09:57:33.607Z,13.12
2022-10-01T10:00:09.944Z,12.68
2022-10-01T10:02:45.994Z,12.73
2022-10-01T10:05:20.120Z,12.60
2022-10-01T10:07:51.452Z,12.83
2022-10-01T10:10:25.562Z,12.85
2022-10-01T10:12:57.203Z,12.47
2022-10-01T10:15:26.377Z,12.29
2022-10-01T10:17:55.634Z,11.92
2022-10-01T10:20:33.471Z,11.80
2022-10-01T10:23:08.439Z,11.58
2022-10-01T10:25:36.002Z,11.54
2022-10-01T10:28:05.085Z,11.68
2022-10-01T10:30:34.323Z,11.37
2022-10-01T10:33:08.117Z,11.44
2022-10-01T10:35:37.147Z,10.96
2022-10-01T10:38:05.233Z,10.85
2022-10-01T10:40:43.318Z,11.13
2022-10-01T10:43:19.159Z,10.81
2022-10-01T10:45:46.852Z,10.82
2022-10-01T10:48:19.994Z,10.86
2022-10-01T10:50:48.892Z,11.19
2022-10-01T10:53:21.970Z,11.29
2022-10-01T10:55:58.269Z,10.92
2022-10-01T10:58:27.697Z,10.96
2022-10-01T11:00:58.441Z,10.68
2022-10-01T11:03:29.103Z,10.77
2022-10-01T11:06:03.946Z,10.88
2022-10-01T11:08:32.438Z,10.85
2022-10-01T11:11:14.305Z,10.70
2022-10-01T11:14:00.740Z,10.96
2022-10-01T11:16:43.925Z,11.15
2022-10-01T11:19:34.667Z,10.71
2022-10-01T11:22:18.489Z,10.67
2022-10-01T11:25:04.621Z,10.77
2022-10-01T11:27:40.853Z,10.80
2022-10-01T11:30:11.843Z,10.59
2022-10-01T11:32:42.394Z,10.67
2022-10-01T11:35:49.257Z,10.51
2022-10-01T11:38:43.682Z,10.43
2022-10-01T11:41:21.467Z,10.49
2022-10-01T11:43:53.792Z,10.58
2022-10-01T11:46:33.659Z,10.70
2022-10-01T11:49:09.927Z,10.43
2022-10-01T11:51:45.157Z,10.38
2022-10-01T11:54:19.660Z,10.52
2022-10-01T11:57:08.650Z,10.64
2022-10-01T11:59:41.643Z,10.84
2022-10-01T12:02:19.063Z,10.79
2022-10-01T12:04:53.560Z,10.66
2022-10-01T12:07:26.983Z,10.64
2022-10-01T12:10:02.493Z,10.84
2022-10-01T12:12:35.164Z,10.90
2022-10-01T12:15:09.718Z,10.85
2022-10-01T12:17:43.015Z,10.67
2022-10-01T12:20:21.336Z,10.69
2022-10-01T12:22:49.772Z,10.69
2022-10-01T12:25:21.170Z,10.84
2022-10-01T12:27:59.418Z,10.65
2022-10-01T12:30:31.866Z,10.66
2022-10-01T12:33:16.957Z,10.82
2022-10-01T12:35:58.915Z,10.87
2022-10-01T12:38:40.743Z,10.95
2022-10-01T12:41:25.376Z,10.94
2022-10-01T12:44:14.020Z,11.12
2022-10-01T12:46:51.517Z,11.01
2022-10-01T12:49:27.566Z,11.31
2022-10-01T12:52:05.299Z,11.58
2022-10-01T12:54:57.456Z,11.49
2022-10-01T12:57:39.872Z,11.37
2022-10-01T13:00:12.417Z,11.55
2022-10-01T13:03:13.695Z,11.73
2022-10-01T13:05:52.610Z,11.72
2022-10-01T13:08:33.666Z,11.73
2022-10-01T13:11:07.524Z,11.93
2022-10-01T13:13:38.195Z,12.04
2022-10-01T13:16:11.660Z,12.36
2022-10-01T13:18:50.810Z,12.63
2022-10-01T13:21:29.229Z,12.55
2022-10-01T13:24:01.942Z,12.70
2022-10-01T13:26:35.144Z,13.12
2022-10-01T13:29:19.979Z,13.05
2022-10-01T13:31:57.782Z,12.90
2022-10-01T13:34:33.542Z,13.40
2022-10-01T13:37:11.524Z,13.14
2022-10-01T13:39:41.949Z,13.02
2022-10-01T13:42:20.211Z,12.98
2022-10-01T13:44:53.950Z,13.03
2022-10-01T13:47:22.394Z,12.90
2022-10-01T13:49:58.606Z,12.55
2022-10-01T13:52:26.351Z,12.43
2022-10-01T13:54:56.164Z,12.68
2022-10-01T13:57:29.949Z,12.64
2022-10-01T14:00:07.124Z,12.53
2022-10-01T14:02:37.061Z,12.72
2022-10-01T14:05:28.148Z,12.65
2022-10-01T14:08:00.023Z,12.85
2022-10-01T14:10:57.208Z,12.55
2022-10-01T14:13:43.292Z,12.16
2022-10-01T14:16:12.732Z,12.11
2022-10-01T14:18:43.623Z,11.95
2022-10-01T14:21:29.889Z,12.20
2022-10-01T14:24:05.210Z,11.86
2022-10-01T14:26:43.080Z,11.62
2022-10-01T14:29:22.979Z,11.61
2022-10-01T14:32:02.437Z,11.80
2022-10-01T14:34:48.689Z,11.72
2022-10-01T14:37:18.484Z,11.70
2022-10-01T14:39:46.582Z,11.60
2022-10-01T14:42:17.530Z,11.55
2022-10-01T14:44:46.695Z,11.80
2022-10-01T14:47:20.419Z,11.59
2022-10-01T14:49:49.199Z,11.49
2022-10-01T14:52:23.133Z,11.67
2022-10-01T14:54:54.023Z,11.72
2022-10-01T14:57:29.626Z,11.52
2022-10-01T14:59:59.595Z,11.61
2022-10-01T15:02:29.458Z,11.59
2022-10-01T15:04:58.295Z,11.71
2022-10-01T15:07:29.058Z,11.76
2022-10-01T15:10:07.129Z,11.84
2022-10-01T15:12:40.218Z,11.72
2022-10-01T15:15:18.756Z,11.67
2022-10-01T15:17:48.548Z,11.76
2022-10-01T15:20:17.584Z,11.87
2022-10-01T15:22:48.023Z,11.76
2022-10-01T15:25:20.965Z,11.88
2022-10-01T15:27:49.641Z,11.84
2022-10-01T15:30:19.250Z,11.90
2022-10-01T15:32:49.733Z,11.96
2022-10-01T15:35:20.791Z,11.93
2022-10-01T15:37:50.543Z,12.24
2022-10-01T15:40:30.070Z,12.25
2022-10-01T15:43:26.219Z,12.36
2022-10-01T15:46:10.484Z,12.41
2022-10-01T15:48:39.421Z,12.44
2022-10-01T15:51:15.927Z,12.38
2022-10-01T15:53:43.651Z,12.32
2022-10-01T15:56:14.605Z,12.47
2022-10-01T15:58:48.403Z,12.69
2022-10-01T16:01:22.147Z,12.71
2022-10-01T16:03:55.608Z,12.58
2022-10-01T16:06:26.968Z,12.58
2022-10-01T16:09:01.910Z,12.48
2022-10-01T16:11:32.676Z,12.58
2022-10-01T16:14:22.900Z,12.58
2022-10-01T16:16:51.230Z,12.71
2022-10-01T16:19:29.512Z,12.72
2022-10-01T16:22:20.738Z,12.63
2022-10-01T16:24:49.758Z,12.63
2022-10-01T16:27:19.469Z,12.62
2022-10-01T16:30:12.865Z,12.52
2022-10-01T16:32:40.784Z,12.72
2022-10-01T16:35:21.038Z,12.78
2022-10-01T16:37:50.031Z,12.76
2022-10-01T16:40:18.463Z,12.69
2022-10-01T16:42:46.721Z,12.77
2022-10-01T16:45:17.658Z,12.90
2022-10-01T16:47:45.980Z,13.01
2022-10-01T16:50:16.082Z,12.74
2022-10-01T16:52:45.004Z,12.96
2022-10-01T16:55:18.099Z,12.69
2022-10-01T16:57:45.601Z,12.96
2022-10-01T17:00:15.532Z,12.69
2022-10-01T17:02:43.758Z,12.70
2022-10-01T17:05:18.589Z,12.88
2022-10-01T17:07:47.705Z,12.77
2022-10-01T17:10:16.460Z,12.75
2022-10-01T17:12:44.589Z,12.66
2022-10-01T17:15:15.616Z,12.50
2022-10-01T17:17:43.119Z,12.54
2022-10-01T17:20:11.067Z,12.60
2022-10-01T17:22:39.191Z,12.71
2022-10-01T17:25:09.336Z,12.59
2022-10-01T17:27:36.846Z,12.77
2022-10-01T17:30:04.762Z,13.00
2022-10-01T17:32:32.781Z,12.89
2022-10-01T17:35:00.244Z,13.13
2022-10-01T17:37:27.765Z,12.86
2022-10-01T17:39:55.290Z,12.89
2022-10-01T17:42:24.173Z,12.94
2022-10-01T17:44:52.316Z,12.90
2022-10-01T17:47:19.826Z,12.95
2022-10-01T17:49:47.386Z,13.05
2022-10-01T17:52:15.108Z,13.01
2022-10-01T17:54:42.644Z,13.02
2022-10-01T17:57:10.783Z,13.12
2022-10-01T17:59:39.765Z,13.10
2022-10-01T18:02:23.901Z,13.42
2022-10-01T18:04:55.565Z,13.43
2022-10-01T18:07:24.029Z,13.49
2022-10-01T18:09:52.861Z,12.92
2022-10-01T18:12:20.508Z,13.09
2022-10-01T18:14:49.732Z,13.26
2022-10-01T18:17:17.463Z,13.16
2022-10-01T18:19:53.336Z,13.11
2022-10-01T18:22:21.694Z,12.79
2022-10-01T18:24:49.292Z,12.91
2022-10-01T18:27:16.858Z,12.95
2022-10-01T18:29:44.438Z,13.12
2022-10-01T18:32:18.886Z,13.21
2022-10-01T18:34:50.623Z,13.27
2022-10-01T18:37:31.019Z,13.23
2022-10-01T18:40:03.087Z,13.35
2022-10-01T18:42:42.660Z,13.00
2022-10-01T18:45:16.830Z,12.76
2022-10-01T18:48:04.038Z,12.85
2022-10-01T18:50:41.608Z,12.70
2022-10-01T18:53:29.968Z,12.54
2022-10-01T18:56:16.493Z,12.55
2022-10-01T18:58:57.693Z,12.62
2022-10-01T19:01:36.212Z,12.77
2022-10-01T19:04:25.379Z,12.66
2022-10-01T19:07:07.287Z,12.50
2022-10-01T19:09:45.001Z,12.30
2022-10-01T19:12:26.847Z,12.52
2022-10-01T19:15:12.596Z,12.44
2022-10-01T19:17:52.760Z,12.36
2022-10-01T19:20:45.112Z,12.21
2022-10-01T19:23:29.429Z,12.40
2022-10-01T19:26:08.747Z,12.11
2022-10-01T19:28:51.652Z,11.95
2022-10-01T19:31:25.548Z,12.18
2022-10-01T19:33:57.651Z,12.21
2022-10-01T19:36:34.340Z,12.09
2022-10-01T19:39:09.649Z,12.08
2022-10-01T19:41:43.125Z,12.24
2022-10-01T19:44:14.876Z,12.11
2022-10-01T19:46:45.301Z,11.94
2022-10-01T19:49:19.173Z,12.12
2022-10-01T19:51:56.464Z,12.14
2022-10-01T19:54:28.388Z,12.52
2022-10-01T19:57:02.320Z,12.54
2022-10-01T19:59:30.148Z,12.53
2022-10-01T20:02:03.759Z,12.51
2022-10-01T20:04:38.013Z,12.26
2022-10-01T20:07:12.716Z,12.30
2022-10-01T20:09:45.921Z,12.40
2022-10-01T20:12:25.247Z,12.61
2022-10-01T20:15:09.988Z,12.72
2022-10-01T20:17:50.914Z,12.52
2022-10-01T20:20:24.258Z,12.76
2022-10-01T20:23:07.870Z,12.14
2022-10-01T20:25:44.634Z,12.37
2022-10-01T20:28:19.907Z,12.40
2022-10-01T20:30:59.004Z,12.07
2022-10-01T20:33:35.392Z,12.20
2022-10-01T20:36:12.726Z,11.98
2022-10-01T20:38:48.538Z,12.41
2022-10-01T20:41:19.813Z,12.27
2022-10-01T20:43:50.068Z,12.59
2022-10-01T20:46:24.911Z,12.49
2022-10-01T20:48:57.295Z,12.34
2022-10-01T20:51:33.552Z,11.94
2022-10-01T20:54:07.866Z,11.88
2022-10-01T20:56:41.393Z,11.91
2022-10-01T20:59:14.635Z,11.94
2022-10-01T21:01:51.125Z,11.92
2022-10-01T21:04:24.129Z,12.24
2022-10-01T21:06:54.958Z,12.51
2022-10-01T21:09:30.777Z,12.63
2022-10-01T21:12:04.014Z,12.61
2022-10-01T21:14:37.525Z,12.70
2022-10-01T21:17:29.856Z,12.60
2022-10-01T21:20:11.468Z,12.55
2022-10-01T21:22:52.690Z,12.57
2022-10-01T21:25:31.457Z,12.86
2022-10-01T21:28:24.719Z,13.15
2022-10-01T21:31:03.559Z,12.99
2022-10-01T21:33:34.211Z,13.49
2022-10-01T21:36:07.934Z,12.90
2022-10-01T21:38:42.092Z,13.01
2022-10-01T21:41:24.089Z,13.25
2022-10-01T21:44:11.212Z,13.38
2022-10-01T21:46:42.646Z,13.29
2022-10-01T21:49:18.748Z,12.68
2022-10-01T21:51:59.964Z,12.86
2022-10-01T21:54:41.412Z,12.85
2022-10-01T21:57:23.623Z,12.74
2022-10-01T22:00:07.925Z,12.72
2022-10-01T22:02:47.425Z,12.78
2022-10-01T22:05:24.503Z,12.96
2022-10-01T22:08:01.259Z,12.90
2022-10-01T22:10:33.907Z,12.90
2022-10-01T22:13:07.542Z,13.13
2022-10-01T22:15:40.289Z,13.21
2022-10-01T22:18:13.067Z,13.17
2022-10-01T22:20:43.417Z,12.99
2022-10-01T22:23:13.755Z,12.94
2022-10-01T22:25:46.712Z,12.83
2022-10-01T22:28:19.526Z,12.67
2022-10-01T22:30:50.816Z,12.66
2022-10-01T22:33:22.863Z,12.66
2022-10-01T22:35:54.997Z,12.65
2022-10-01T22:38:26.833Z,12.54
2022-10-01T22:40:59.587Z,12.78
2022-10-01T22:43:29.320Z,12.63
2022-10-01T22:46:12.084Z,12.59
2022-10-01T22:48:51.983Z,12.76
2022-10-01T22:51:40.108Z,13.00
2022-10-01T22:54:25.115Z,12.69
2022-10-01T22:57:00.139Z,12.39
2022-10-01T22:59:38.185Z,12.35
2022-10-01T23:02:12.988Z,12.40
2022-10-01T23:04:52.798Z,12.46
2022-10-01T23:07:29.095Z,12.49
2022-10-01T23:10:05.356Z,12.57
2022-10-01T23:12:41.854Z,12.49
2022-10-01T23:15:33.628Z,12.90
2022-10-01T23:18:11.677Z,12.76
2022-10-01T23:20:46.924Z,12.91
2022-10-01T23:23:28.343Z,12.74
2022-10-01T23:26:13.997Z,12.48
2022-10-01T23:28:55.065Z,12.63
2022-10-01T23:31:32.727Z,13.05
2022-10-01T23:34:11.179Z,12.71
2022-10-01T23:36:47.273Z,12.65
2022-10-01T23:39:33.471Z,12.86
2022-10-01T23:42:09.680Z,13.14
2022-10-01T23:44:42.860Z,13.16
2022-10-01T23:47:19.073Z,13.20
2022-10-01T23:49:52.847Z,13.10
2022-10-01T23:52:27.151Z,13.02
2022-10-01T23:55:18.959Z,12.78
2022-10-01T23:57:49.160Z,13.17
